Time;durP1;ratioP1;P1;durP2;ratioP2;P2;SDS_P1;SDS_P2;PMS_P1;PMS_P2;Temp;Humidity;BMP_temperature;BMP_pressure;BME280_temperature;BME280_humidity;BME280_pressure;Samples;Min_cycle;Max_cycle;Signal;HPM_P1;HPM_P2
2021/12/21 00:02:26;;;;;;;2.70;2.60;;;;;;;2.98;87.15;99643.13;5090503;28;20199;-71
2021/12/21 00:04:53;;;;;;;2.97;2.77;;;;;;;2.98;86.63;99648.19;5090915;28;20211;-71
2021/12/21 00:07:20;;;;;;;2.90;2.70;;;;;;;3.00;86.75;99643.16;5088397;28;20902;-71
2021/12/21 00:09:47;;;;;;;3.47;3.30;;;;;;;2.97;86.87;99651.56;5088618;28;20230;-71
2021/12/21 00:12:17;;;;;;;2.97;2.87;;;;;;;2.92;86.83;99647.34;5088644;28;20203;-71
2021/12/21 00:14:56;;;;;;;3.27;2.93;;;;;;;2.94;86.97;99651.56;5088788;28;20200;-71
2021/12/21 00:17:46;;;;;;;2.80;2.70;;;;;;;2.90;86.97;99657.47;5088808;28;20215;-71
2021/12/21 00:20:26;;;;;;;4.03;2.47;;;;;;;2.85;87.21;99669.25;5089203;28;20614;-70
2021/12/21 00:23:28;;;;;;;2.70;2.50;;;;;;;2.85;86.71;99660.78;5088832;28;20199;-71
2021/12/21 00:25:55;;;;;;;2.73;2.60;;;;;;;2.91;87.26;99671.81;5088517;28;20195;-71
2021/12/21 00:28:22;;;;;;;3.00;2.90;;;;;;;2.97;87.53;99671.81;5089291;28;20205;-71
2021/12/21 00:30:49;;;;;;;3.27;2.93;;;;;;;3.00;87.27;99671.88;5089075;28;20202;-71
2021/12/21 00:33:18;;;;;;;2.60;2.40;;;;;;;3.06;86.97;99679.50;5088173;28;20198;-71
2021/12/21 00:35:46;;;;;;;2.90;2.53;;;;;;;2.99;86.82;99665.09;5088187;28;20195;-70
2021/12/21 00:38:13;;;;;;;3.10;3.00;;;;;;;3.09;86.50;99676.97;5090169;28;20192;-71
2021/12/21 00:40:40;;;;;;;3.33;3.23;;;;;;;3.11;86.35;99675.28;5092196;28;20195;-71
2021/12/21 00:43:06;;;;;;;2.97;2.77;;;;;;;3.11;86.42;99675.28;5092285;28;20556;-71
2021/12/21 00:45:34;;;;;;;3.10;2.90;;;;;;;3.01;85.81;99665.94;5092853;28;20207;-70
2021/12/21 00:48:01;;;;;;;3.53;3.27;;;;;;;3.08;86.11;99670.19;5094167;28;20202;-71
2021/12/21 00:50:29;;;;;;;3.30;3.10;;;;;;;3.05;86.28;99677.78;5094181;28;20210;-71
2021/12/21 00:52:56;;;;;;;2.77;2.63;;;;;;;3.07;85.98;99683.69;5093824;28;20199;-71
2021/12/21 00:55:24;;;;;;;2.83;2.63;;;;;;;3.03;85.08;99676.94;5094187;28;20200;-70
2021/12/21 00:57:51;;;;;;;2.80;2.70;;;;;;;2.88;84.18;99686.97;5093547;28;20222;-70
2021/12/21 01:00:21;;;;;;;3.17;2.97;;;;;;;2.86;84.74;99678.53;5093861;28;20202;-70
2021/12/21 01:02:49;;;;;;;3.23;3.03;;;;;;;2.69;84.81;99669.16;5093855;28;20199;-70
2021/12/21 01:05:19;;;;;;;2.70;2.60;;;;;;;2.52;84.91;99662.31;5092999;28;20579;-70
2021/12/21 01:07:51;;;;;;;2.33;2.23;;;;;;;2.34;84.76;99663.88;5092491;28;20199;-70
2021/12/21 01:13:27;;;;;;;2.60;2.50;;;;;;;2.19;85.75;99662.09;5093920;28;20264;-70
2021/12/21 01:16:05;;;;;;;2.40;2.30;;;;;;;2.17;86.66;99665.41;5093372;28;20318;-70
2021/12/21 01:18:37;;;;;;;2.53;2.43;;;;;;;2.06;87.35;99660.31;5093666;28;20191;-70
2021/12/21 01:21:14;;;;;;;2.23;2.13;;;;;;;2.07;87.39;99667.03;5092496;28;20261;-70
2021/12/21 01:24:02;;;;;;;2.63;2.53;;;;;;;2.11;87.72;99674.66;5090902;28;20242;-70
2021/12/21 01:26:36;;;;;;;2.10;2.00;;;;;;;2.10;87.66;99675.50;5092168;28;20191;-70
2021/12/21 01:29:12;;;;;;;2.90;2.70;;;;;;;2.10;87.40;99682.25;5093131;28;20695;-70
2021/12/21 01:31:48;;;;;;;3.40;2.27;;;;;;;2.09;87.51;99693.19;5093416;28;20195;-70
2021/12/21 01:34:27;;;;;;;2.73;2.63;;;;;;;2.06;87.04;99691.50;5093110;28;20199;-70
2021/12/21 01:36:59;;;;;;;3.33;2.50;;;;;;;2.07;87.21;99685.59;5093124;28;20608;-70
2021/12/21 01:42:19;;;;;;;2.00;1.90;;;;;;;2.05;86.97;99684.75;5092413;28;20207;-70
2021/12/21 01:50:11;;;;;;;2.40;2.27;;;;;;;1.95;87.19;99692.22;5091823;28;20202;-71
2021/12/21 01:52:38;;;;;;;2.00;1.90;;;;;;;1.92;87.24;99688.00;5092790;28;20202;-70
2021/12/21 01:55:08;;;;;;;2.50;2.40;;;;;;;1.84;86.90;99679.47;5092510;28;20293;-70
2021/12/21 01:57:34;;;;;;;2.07;1.97;;;;;;;1.85;86.61;99681.19;5092786;28;20211;-70
2021/12/21 02:00:01;;;;;;;2.60;2.40;;;;;;;1.82;86.35;99675.25;5092481;28;20198;-70
2021/12/21 02:02:28;;;;;;;2.40;2.30;;;;;;;1.79;86.47;99678.59;5091875;28;20203;-70
2021/12/21 02:04:55;;;;;;;2.67;2.47;;;;;;;1.74;86.38;99677.72;5092118;28;20598;-70
2021/12/21 02:07:22;;;;;;;2.10;2.00;;;;;;;1.73;86.29;99678.56;5092077;28;20575;-70
2021/12/21 02:09:49;;;;;;;2.17;2.07;;;;;;;1.76;86.47;99675.19;5092689;28;20702;-70
2021/12/21 02:12:20;;;;;;;2.40;2.20;;;;;;;1.77;86.58;99672.69;5092185;28;20682;-70
2021/12/21 02:14:54;;;;;;;2.27;2.17;;;;;;;1.84;86.03;99674.44;5090552;28;20202;-70
2021/12/21 02:17:48;;;;;;;1.87;1.73;;;;;;;1.86;85.71;99667.72;5090285;28;20214;-70
2021/12/21 02:20:22;;;;;;;2.17;2.07;;;;;;;1.96;85.72;99673.69;5090272;28;20191;-70
2021/12/21 02:22:56;;;;;;;2.33;2.23;;;;;;;1.99;85.32;99674.56;5090276;28;20253;-70
2021/12/21 02:25:54;;;;;;;3.37;2.13;;;;;;;2.04;85.32;99677.97;5090368;28;20199;-70
2021/12/21 02:28:46;;;;;;;2.00;1.90;;;;;;;2.12;85.34;99675.53;5090218;28;20199;-70
2021/12/21 02:31:13;;;;;;;1.70;1.70;;;;;;;2.16;85.25;99684.84;5087056;28;20583;-70
2021/12/21 02:33:40;;;;;;;2.20;2.10;;;;;;;2.22;85.29;99678.97;5090342;28;20204;-70
2021/12/21 02:36:08;;;;;;;2.70;2.60;;;;;;;2.19;85.64;99676.41;5090232;28;20652;-70
2021/12/21 02:38:35;;;;;;;2.60;2.10;;;;;;;2.19;85.13;99684.00;5089716;28;20242;-70
2021/12/21 02:41:03;;;;;;;2.37;2.17;;;;;;;2.13;85.25;99683.09;5090091;28;20198;-70
2021/12/21 02:43:30;;;;;;;2.20;2.10;;;;;;;2.15;84.80;99684.81;5089821;28;20607;-70
2021/12/21 02:45:57;;;;;;;2.30;2.20;;;;;;;2.11;84.80;99681.41;5089810;28;20503;-70
2021/12/21 02:48:24;;;;;;;2.10;2.00;;;;;;;2.18;84.85;99689.88;5089866;28;20602;-70
2021/12/21 02:50:51;;;;;;;2.70;2.60;;;;;;;2.20;84.80;99699.19;5090967;28;20214;-70
2021/12/21 02:53:19;;;;;;;2.30;2.20;;;;;;;2.23;84.70;99689.06;5091947;28;20537;-70
2021/12/21 02:55:46;;;;;;;3.13;2.30;;;;;;;2.33;84.55;99706.03;5091337;28;20210;-70
2021/12/21 02:58:13;;;;;;;2.20;2.10;;;;;;;2.31;85.19;99696.75;5091937;28;20946;-70
2021/12/21 03:00:40;;;;;;;2.37;2.27;;;;;;;2.33;85.62;99690.00;5091268;28;20606;-70
2021/12/21 03:03:12;;;;;;;2.37;2.20;;;;;;;2.30;85.76;99700.09;5089135;28;20199;-70
2021/12/21 03:05:40;;;;;;;2.47;2.37;;;;;;;2.33;85.05;99684.94;5091141;28;20238;-70
2021/12/21 03:08:13;;;;;;;2.30;2.20;;;;;;;2.40;85.75;99701.84;5091491;28;20268;-70
2021/12/21 03:10:58;;;;;;;2.80;2.60;;;;;;;2.38;86.53;99701.00;5091169;28;20231;-70
2021/12/21 03:16:09;;;;;;;2.97;2.77;;;;;;;2.31;86.73;99706.84;5088871;28;20590;-70
2021/12/21 03:18:37;;;;;;;2.57;2.37;;;;;;;2.28;86.93;99702.63;5089081;28;20280;-70
2021/12/21 03:21:03;;;;;;;2.27;2.17;;;;;;;2.27;87.26;99705.97;5091348;28;20192;-70
2021/12/21 03:23:30;;;;;;;2.47;2.37;;;;;;;2.31;86.65;99706.84;5091497;28;20203;-70
2021/12/21 03:25:59;;;;;;;3.43;2.90;;;;;;;2.31;86.25;99706.84;5090959;28;20553;-70
2021/12/21 03:28:26;;;;;;;3.47;2.83;;;;;;;2.34;85.67;99709.41;5091302;28;20676;-70
2021/12/21 03:30:53;;;;;;;3.37;3.20;;;;;;;2.39;84.51;99695.94;5091076;28;20556;-70
2021/12/21 03:33:20;;;;;;;3.63;2.43;;;;;;;2.42;84.69;99702.75;5091006;28;20192;-70
2021/12/21 03:35:46;;;;;;;2.20;2.10;;;;;;;2.39;84.15;99705.25;5090887;28;20582;-70
2021/12/21 03:38:14;;;;;;;2.70;2.60;;;;;;;2.38;83.98;99713.66;5090927;28;20683;-70
2021/12/21 03:40:41;;;;;;;2.80;2.60;;;;;;;2.32;83.50;99694.22;5090821;28;20196;-70
2021/12/21 03:43:11;;;;;;;2.60;2.50;;;;;;;2.44;83.63;99723.81;5091127;28;20191;-70
2021/12/21 03:45:42;;;;;;;2.97;2.77;;;;;;;2.45;83.35;99717.94;5090973;28;20268;-70
2021/12/21 03:48:13;;;;;;;2.50;2.40;;;;;;;2.48;83.53;99712.91;5090796;28;20195;-70
2021/12/21 03:50:40;;;;;;;2.47;2.37;;;;;;;2.45;83.83;99717.94;5090995;28;20679;-70
2021/12/21 03:53:07;;;;;;;2.77;2.67;;;;;;;2.45;83.95;99720.47;5090827;28;20192;-69
2021/12/21 03:55:34;;;;;;;3.03;2.83;;;;;;;2.41;84.24;99728.88;5090821;28;20207;-70
2021/12/21 03:58:01;;;;;;;3.23;2.87;;;;;;;2.44;84.74;99726.34;5089396;28;20687;-70
2021/12/21 04:00:29;;;;;;;2.80;2.70;;;;;;;2.41;84.97;99731.41;5090031;28;20203;-70
2021/12/21 04:02:56;;;;;;;2.77;2.67;;;;;;;2.44;83.69;99744.91;5090532;28;20203;-70
2021/12/21 04:05:23;;;;;;;2.87;2.77;;;;;;;2.50;84.00;99754.22;5090591;28;20195;-69
2021/12/21 04:07:50;;;;;;;3.80;3.60;;;;;;;2.51;83.92;99751.72;5090509;28;20197;-70
2021/12/21 04:10:17;;;;;;;5.63;3.00;;;;;;;2.52;83.89;99757.63;5089218;28;20223;-70
2021/12/21 04:12:44;;;;;;;2.60;2.50;;;;;;;2.53;83.51;99761.84;5091913;28;20663;-70
2021/12/21 04:15:13;;;;;;;2.77;2.57;;;;;;;2.59;83.04;99764.41;5094172;28;20682;-69
2021/12/21 04:17:41;;;;;;;2.77;2.67;;;;;;;2.51;83.26;99755.94;5094528;28;20218;-70
2021/12/21 04:20:09;;;;;;;2.60;2.50;;;;;;;2.55;83.78;99777.91;5094385;28;20199;-70
2021/12/21 04:22:36;;;;;;;2.90;2.60;;;;;;;2.54;83.74;99783.78;5093865;28;20217;-70
2021/12/21 04:25:04;;;;;;;2.97;2.80;;;;;;;2.52;83.79;99782.94;5093307;28;20205;-70
2021/12/21 04:27:30;;;;;;;3.00;2.90;;;;;;;2.46;84.04;99767.69;5092657;28;20195;-70
2021/12/21 04:29:57;;;;;;;2.63;2.53;;;;;;;2.54;83.83;99782.13;5092507;28;20539;-70
2021/12/21 04:32:24;;;;;;;3.00;2.90;;;;;;;2.57;83.71;99781.28;5092373;28;20706;-70
2021/12/21 04:34:53;;;;;;;2.93;2.77;;;;;;;2.60;83.75;99786.38;5092667;28;20560;-70
2021/12/21 04:37:22;;;;;;;3.30;3.10;;;;;;;2.56;83.25;99784.63;5092427;28;20690;-70
2021/12/21 04:39:55;;;;;;;3.10;3.00;;;;;;;2.50;84.15;99766.88;5092905;28;20734;-70
2021/12/21 04:42:22;;;;;;;2.70;2.60;;;;;;;2.57;83.77;99796.47;5092681;28;20249;-70
2021/12/21 04:44:49;;;;;;;2.93;2.83;;;;;;;2.46;83.83;99777.81;5092299;28;20191;-70
2021/12/21 04:47:16;;;;;;;2.67;2.47;;;;;;;2.54;83.58;99796.44;5091976;28;20204;-70
2021/12/21 04:49:43;;;;;;;2.87;2.77;;;;;;;2.53;83.94;99803.19;5092017;28;20221;-70
2021/12/21 04:52:11;;;;;;;3.13;2.93;;;;;;;2.57;82.95;99811.66;5092157;28;20671;-70
2021/12/21 04:54:39;;;;;;;2.47;2.37;;;;;;;2.57;82.60;99812.50;5091270;28;20693;-70
2021/12/21 04:57:06;;;;;;;3.43;3.23;;;;;;;2.60;82.67;99821.78;5092158;28;20199;-70
2021/12/21 04:59:33;;;;;;;2.93;2.80;;;;;;;2.60;82.78;99824.31;5092388;28;20698;-70
2021/12/21 05:02:00;;;;;;;3.07;2.87;;;;;;;2.60;82.83;99821.78;5093809;28;20206;-69
2021/12/21 05:04:27;;;;;;;2.83;2.63;;;;;;;2.60;82.38;99827.72;5093311;28;20667;-70
2021/12/21 05:06:54;;;;;;;2.80;2.70;;;;;;;2.60;82.15;99831.91;5093687;28;20201;-70
2021/12/21 05:09:26;;;;;;;3.40;3.00;;;;;;;2.60;82.66;99829.38;5093434;28;20677;-70
2021/12/21 05:11:55;;;;;;;4.93;4.60;;;;;;;2.62;82.47;99827.72;5093573;28;20196;-70
2021/12/21 05:14:22;;;;;;;3.10;2.90;;;;;;;2.64;82.07;99833.66;5093387;28;20196;-70
2021/12/21 05:16:49;;;;;;;2.70;2.50;;;;;;;2.65;82.10;99835.31;5093582;28;20211;-70
2021/12/21 05:19:16;;;;;;;2.93;2.73;;;;;;;2.64;81.87;99829.44;5093603;28;20669;-70
2021/12/21 05:21:43;;;;;;;2.40;2.30;;;;;;;2.71;81.83;99834.56;5093125;28;20196;-70
2021/12/21 05:24:10;;;;;;;2.27;2.17;;;;;;;2.70;80.99;99836.22;5092247;28;20199;-70
2021/12/21 05:26:38;;;;;;;2.43;2.23;;;;;;;2.76;80.87;99843.88;5093160;28;20207;-70
2021/12/21 05:29:05;;;;;;;2.20;2.10;;;;;;;2.75;80.85;99837.09;5093311;28;20195;-70
2021/12/21 05:31:32;;;;;;;2.30;1.93;;;;;;;2.73;80.37;99836.25;5093130;28;20281;-69
2021/12/21 05:33:59;;;;;;;2.07;1.97;;;;;;;2.74;80.61;99835.44;5092821;28;20200;-70
2021/12/21 05:36:26;;;;;;;5.93;2.40;;;;;;;2.77;80.59;99844.72;5089363;28;20219;-70
2021/12/21 05:38:59;;;;;;;2.17;2.07;;;;;;;2.65;80.20;99831.13;5091536;28;21019;-70
2021/12/21 05:41:29;;;;;;;1.80;1.80;;;;;;;2.79;80.69;99848.97;5090441;28;20206;-70
2021/12/21 05:43:57;;;;;;;1.90;1.80;;;;;;;2.78;80.60;99849.78;5091591;28;20203;-70
2021/12/21 05:46:24;;;;;;;1.90;1.80;;;;;;;2.78;80.80;99842.19;5093050;28;20214;-70
2021/12/21 05:48:52;;;;;;;2.03;1.93;;;;;;;2.80;81.39;99858.25;5092793;28;20678;-70
2021/12/21 05:51:21;;;;;;;1.90;1.80;;;;;;;2.81;80.81;99859.94;5092922;28;20205;-70
2021/12/21 05:53:48;;;;;;;1.93;1.83;;;;;;;2.79;80.69;99864.13;5091966;28;20602;-70
2021/12/21 05:56:16;;;;;;;2.93;1.90;;;;;;;2.84;79.72;99872.66;5091722;28;20614;-69
2021/12/21 05:58:43;;;;;;;2.43;2.00;;;;;;;2.85;79.78;99874.31;5092594;28;20216;-70
2021/12/21 06:01:11;;;;;;;2.03;1.87;;;;;;;2.84;80.08;99867.59;5092563;28;20202;-70
2021/12/21 06:03:38;;;;;;;1.87;1.63;;;;;;;2.84;79.93;99872.66;5092508;28;20199;-69
2021/12/21 06:06:10;;;;;;;3.37;2.20;;;;;;;2.78;80.46;99867.50;5092150;28;20604;-69
2021/12/21 06:08:37;;;;;;;2.00;1.90;;;;;;;2.79;79.93;99879.34;5092584;28;20191;-70
2021/12/21 06:11:06;;;;;;;1.80;1.70;;;;;;;2.81;80.97;99881.88;5092054;28;20226;-69
2021/12/21 06:22:43;;;;;;;2.27;2.10;;;;;;;2.78;80.43;99887.75;5074343;28;20199;-70
2021/12/21 06:27:28;;;;;;;1.80;1.70;;;;;;;2.70;80.19;99889.38;5087153;28;20209;-65
2021/12/21 06:29:57;;;;;;;1.70;1.70;;;;;;;2.77;79.92;99903.81;5081323;28;20663;-65
2021/12/21 06:32:26;;;;;;;4.83;1.50;;;;;;;2.77;78.84;99903.81;5084392;28;20199;-65
2021/12/21 06:34:53;;;;;;;1.93;1.83;;;;;;;2.78;78.56;99908.00;5088735;28;20199;-65
2021/12/21 06:37:20;;;;;;;4.10;3.90;;;;;;;2.82;78.25;99909.75;5088886;28;20670;-66
2021/12/21 06:39:48;;;;;;;3.83;3.63;;;;;;;2.83;78.46;99916.50;5083398;28;20289;-66
2021/12/21 06:42:16;;;;;;;2.87;2.47;;;;;;;2.88;77.65;99919.91;5087942;28;20215;-70
2021/12/21 06:44:45;;;;;;;2.40;2.20;;;;;;;2.90;76.45;99930.06;5084114;28;20601;-70
2021/12/21 06:52:46;;;;;;;2.80;2.60;;;;;;;2.96;78.27;99935.19;5088784;28;20264;-70
2021/12/21 06:55:12;;;;;;;3.30;3.10;;;;;;;3.00;77.74;99942.84;5087060;28;20203;-70
2021/12/21 06:57:43;;;;;;;2.43;2.27;;;;;;;3.03;77.50;99936.94;5087748;28;20663;-70
2021/12/21 07:00:12;;;;;;;2.70;2.50;;;;;;;3.07;77.79;99943.75;5083725;28;20223;-70
2021/12/21 07:02:40;;;;;;;3.07;2.40;;;;;;;3.05;77.39;99951.31;5087710;28;20195;-70
2021/12/21 07:05:10;;;;;;;1.90;1.80;;;;;;;3.08;77.83;99948.81;5088124;28;20207;-70
2021/12/21 07:07:37;;;;;;;3.63;3.33;;;;;;;3.11;77.90;99948.81;5087454;28;20207;-73
2021/12/21 07:10:09;;;;;;;1.80;1.80;;;;;;;3.02;78.53;99942.84;5086656;28;21602;-74
2021/12/21 07:18:08;;;;;;;2.17;2.07;;;;;;;3.05;78.35;99958.91;5085666;28;20667;-73
2021/12/21 07:20:37;;;;;;;2.00;1.90;;;;;;;3.07;78.08;99954.69;5084927;28;20231;-72
2021/12/21 07:23:05;;;;;;;3.43;3.13;;;;;;;3.10;78.05;99957.25;5084122;28;20206;-73
2021/12/21 07:25:32;;;;;;;2.60;2.50;;;;;;;3.06;77.91;99968.22;5080227;28;20199;-72
2021/12/21 07:27:59;;;;;;;4.10;3.80;;;;;;;3.06;79.01;99963.16;5082726;28;20198;-72
2021/12/21 07:30:26;;;;;;;2.80;2.70;;;;;;;3.09;78.91;99965.72;5087105;28;20200;-72
2021/12/21 07:32:53;;;;;;;2.53;2.43;;;;;;;3.13;78.50;99964.88;5088211;28;20214;-73
2021/12/21 07:35:20;;;;;;;3.40;3.17;;;;;;;3.04;78.79;99951.28;5089363;28;20206;-73
2021/12/21 07:37:48;;;;;;;3.30;2.90;;;;;;;3.05;79.67;99963.97;5088075;28;20197;-75
2021/12/21 07:40:15;;;;;;;2.77;2.60;;;;;;;3.02;79.42;99958.03;5085874;28;20218;-71
2021/12/21 07:42:42;;;;;;;2.60;2.50;;;;;;;3.04;78.56;99967.34;5085703;28;20214;-72
2021/12/21 07:45:10;;;;;;;2.67;2.57;;;;;;;2.96;78.76;99963.91;5087929;28;20675;-71
2021/12/21 07:47:37;;;;;;;2.40;2.20;;;;;;;2.95;79.29;99972.31;5086302;28;20207;-71
2021/12/21 07:50:05;;;;;;;2.80;2.30;;;;;;;2.90;78.50;99968.06;5082971;28;20203;-71
2021/12/21 07:52:33;;;;;;;9.70;4.73;;;;;;;2.90;79.27;99979.03;5084195;28;20207;-72
2021/12/21 07:55:01;;;;;;;4.03;3.67;;;;;;;2.89;79.01;99987.47;5080284;28;20210;-71
2021/12/21 07:57:28;;;;;;;2.30;2.20;;;;;;;2.88;77.58;99990.81;5087591;28;20207;-72
2021/12/21 07:59:55;;;;;;;4.27;2.77;;;;;;;2.87;78.11;99989.13;5083718;28;20224;-72
2021/12/21 08:02:25;;;;;;;3.40;3.10;;;;;;;2.90;78.15;99994.22;5087744;28;20211;-71
2021/12/21 08:04:53;;;;;;;9.03;3.07;;;;;;;2.90;78.52;99994.22;5086945;28;20203;-71
2021/12/21 08:07:24;;;;;;;7.20;5.80;;;;;;;2.87;79.00;99994.19;5086181;28;20282;-71
2021/12/21 08:09:53;;;;;;;2.80;2.63;;;;;;;2.95;79.52;100006.91;5086459;28;20226;-72
2021/12/21 08:12:23;;;;;;;2.33;2.23;;;;;;;3.03;78.43;100003.66;5087480;28;20286;-72
2021/12/21 08:14:52;;;;;;;3.57;3.37;;;;;;;3.21;78.54;100017.28;5087137;28;20583;-72
2021/12/21 08:17:20;;;;;;;2.30;2.20;;;;;;;3.33;77.92;100014.91;5086359;28;20202;-72
2021/12/21 08:19:48;;;;;;;2.37;2.00;;;;;;;3.62;76.70;100013.41;5084528;28;20223;-72
2021/12/21 08:22:16;;;;;;;2.43;2.33;;;;;;;3.70;76.66;100011.81;5085224;28;20199;-71
2021/12/21 08:24:44;;;;;;;2.00;1.90;;;;;;;3.91;75.28;100022.06;5089777;28;20268;-72
2021/12/21 08:27:11;;;;;;;4.97;4.60;;;;;;;4.02;75.77;100024.69;5089643;28;20204;-70
2021/12/21 08:29:39;;;;;;;2.20;2.10;;;;;;;4.19;73.67;100028.19;5088228;28;20215;-70
2021/12/21 08:32:08;;;;;;;2.90;1.90;;;;;;;4.26;73.57;100026.53;5084848;28;20203;-69
2021/12/21 08:34:34;;;;;;;3.37;2.50;;;;;;;4.40;74.01;100027.41;5084361;28;20206;-70
2021/12/21 08:37:02;;;;;;;2.17;1.97;;;;;;;4.52;72.21;100032.56;5085312;28;20204;-70
2021/12/21 08:39:37;;;;;;;2.27;2.17;;;;;;;4.55;72.36;100022.44;5084912;28;20223;-70
2021/12/21 08:42:04;;;;;;;3.90;1.70;;;;;;;4.61;72.75;100020.75;5084445;28;20620;-69
2021/12/21 08:44:31;;;;;;;1.63;1.53;;;;;;;4.68;73.63;100024.19;5085974;28;20701;-69
2021/12/21 08:46:59;;;;;;;1.90;1.80;;;;;;;4.70;71.39;100025.00;5087694;28;20226;-70
2021/12/21 08:49:27;;;;;;;12.60;2.50;;;;;;;4.80;71.86;100028.44;5084913;28;20206;-70
2021/12/21 08:51:55;;;;;;;2.10;2.00;;;;;;;4.91;70.21;100031.88;5086575;28;20200;-69
2021/12/21 08:54:22;;;;;;;1.60;1.60;;;;;;;4.89;69.72;100034.38;5089982;28;20659;-70
2021/12/21 08:56:49;;;;;;;3.00;1.70;;;;;;;4.87;69.70;100036.09;5087803;28;20203;-70
2021/12/21 08:59:16;;;;;;;2.27;2.23;;;;;;;5.01;69.92;100031.03;5087915;28;20222;-70
2021/12/21 09:01:43;;;;;;;2.30;2.10;;;;;;;5.07;69.46;100036.13;5089071;28;20707;-70
2021/12/21 09:04:11;;;;;;;2.10;2.00;;;;;;;5.17;69.66;100025.97;5085460;28;20209;-70
2021/12/21 09:06:38;;;;;;;2.60;1.63;;;;;;;5.26;69.11;100041.25;5088747;28;20211;-67
2021/12/21 09:09:05;;;;;;;14.50;3.10;;;;;;;5.25;69.60;100033.63;5087824;28;20195;-69
2021/12/21 09:11:32;;;;;;;2.80;2.70;;;;;;;5.34;68.46;100033.63;5086701;28;20207;-68
2021/12/21 09:13:59;;;;;;;3.10;2.93;;;;;;;5.33;69.10;100039.56;5088427;28;20202;-69
2021/12/21 09:16:26;;;;;;;2.80;2.60;;;;;;;5.43;70.36;100030.25;5087990;28;20203;-69
2021/12/21 09:18:53;;;;;;;1.90;1.80;;;;;;;5.49;70.73;100032.78;5082731;28;20215;-69
2021/12/21 09:21:21;;;;;;;1.97;1.83;;;;;;;5.39;67.87;100031.09;5085411;28;20215;-69
2021/12/21 09:23:48;;;;;;;6.23;1.80;;;;;;;5.41;68.19;100030.25;5084848;28;20206;-69
2021/12/21 09:26:15;;;;;;;3.43;1.63;;;;;;;5.41;69.10;100030.25;5090024;28;20207;-69
2021/12/21 09:28:42;;;;;;;1.80;1.80;;;;;;;5.55;68.81;100015.00;5086562;28;20204;-69
2021/12/21 09:31:09;;;;;;;2.13;1.87;;;;;;;5.60;68.05;100018.38;5087896;28;20204;-69
2021/12/21 09:33:36;;;;;;;2.17;2.07;;;;;;;5.62;66.33;100014.16;5086919;28;20199;-71
2021/12/21 09:36:03;;;;;;;2.07;1.87;;;;;;;5.62;67.12;100014.97;5092146;28;20604;-69
2021/12/21 09:38:31;;;;;;;5.47;2.33;;;;;;;5.69;66.05;100013.28;5091976;28;20191;-69
2021/12/21 09:40:59;;;;;;;5.67;2.00;;;;;;;5.59;68.69;100001.44;5090392;28;20210;-70
2021/12/21 09:43:26;;;;;;;2.30;2.10;;;;;;;5.69;67.41;100016.66;5087765;28;20211;-70
2021/12/21 09:45:53;;;;;;;3.10;2.13;;;;;;;5.66;67.74;99998.00;5086691;28;20208;-70
2021/12/21 09:48:20;;;;;;;2.50;2.20;;;;;;;5.54;67.88;100008.22;5088202;28;20199;-69
2021/12/21 09:50:47;;;;;;;2.40;2.30;;;;;;;5.50;68.75;100009.91;5090351;28;20647;-69
2021/12/21 09:53:13;;;;;;;3.13;2.60;;;;;;;5.42;68.52;100010.75;5090743;28;20654;-71
2021/12/21 09:55:42;;;;;;;3.43;2.53;;;;;;;5.36;68.83;99995.50;5088020;28;20660;-71
2021/12/21 09:58:08;;;;;;;1.60;1.50;;;;;;;5.24;67.71;99976.84;5088526;28;20575;-70
2021/12/21 10:00:35;;;;;;;1.90;1.80;;;;;;;5.49;67.57;100012.47;5088195;28;20214;-70
2021/12/21 10:03:04;;;;;;;1.70;1.60;;;;;;;5.56;65.95;100002.25;5088496;28;20200;-72
2021/12/21 10:05:32;;;;;;;1.43;1.43;;;;;;;5.63;66.11;99995.47;5087723;28;20755;-71
2021/12/21 10:08:01;;;;;;;1.30;1.30;;;;;;;5.74;63.35;100003.97;5088167;28;20213;-71
2021/12/21 10:10:33;;;;;;;1.60;1.60;;;;;;;5.73;62.81;100004.81;5085745;28;21133;-71
2021/12/21 10:13:10;;;;;;;2.10;2.00;;;;;;;5.87;65.42;100003.13;5086326;28;20278;-70
2021/12/21 10:15:42;;;;;;;1.87;1.87;;;;;;;5.80;64.95;99979.34;5088731;28;20199;-70
2021/12/21 10:18:10;;;;;;;2.47;2.37;;;;;;;5.99;64.32;100002.25;5087960;28;20207;-69
2021/12/21 10:20:39;;;;;;;3.13;2.47;;;;;;;5.95;65.07;100003.94;5088677;28;20226;-70
2021/12/21 10:23:12;;;;;;;2.20;2.10;;;;;;;5.96;61.99;99990.38;5088282;28;20365;-71
2021/12/21 10:25:45;;;;;;;2.27;2.17;;;;;;;6.04;61.41;99993.75;5086481;28;20328;-71
2021/12/21 10:28:24;;;;;;;2.17;2.03;;;;;;;6.02;63.17;99989.50;5086778;28;20197;-70
2021/12/21 10:30:53;;;;;;;2.90;2.80;;;;;;;5.95;64.20;99991.22;5088701;28;20199;-70
2021/12/21 10:33:20;;;;;;;2.40;2.30;;;;;;;5.94;63.57;100002.28;5086749;28;20203;-71
2021/12/21 10:35:46;;;;;;;3.00;2.80;;;;;;;5.82;62.91;99997.16;5081459;28;20215;-70
2021/12/21 10:38:24;;;;;;;3.90;3.60;;;;;;;5.73;64.44;99997.16;5079108;28;20228;-70
2021/12/21 10:40:52;;;;;;;3.03;2.87;;;;;;;5.59;64.76;99993.81;5084526;28;20707;-70
2021/12/21 10:43:20;;;;;;;3.27;3.07;;;;;;;5.51;64.20;99990.41;5086374;28;20210;-70
2021/12/21 10:45:48;;;;;;;2.80;2.60;;;;;;;5.53;65.39;99987.00;5087750;28;20785;-71
2021/12/21 10:48:19;;;;;;;2.53;2.40;;;;;;;5.49;65.31;99984.47;5088510;28;20199;-70
2021/12/21 10:50:47;;;;;;;1.97;1.87;;;;;;;5.50;63.32;99979.38;5087622;28;20199;-71
2021/12/21 10:53:18;;;;;;;1.40;1.40;;;;;;;5.44;62.31;99983.63;5088417;28;20206;-70
2021/12/21 10:55:46;;;;;;;1.43;1.43;;;;;;;5.39;62.99;99987.88;5085278;28;20209;-70
2021/12/21 10:58:16;;;;;;;1.67;1.67;;;;;;;5.36;62.04;99970.09;5083399;28;20626;-69
2021/12/21 11:00:48;;;;;;;1.77;1.67;;;;;;;5.35;62.68;99976.00;5086683;28;20710;-70
2021/12/21 11:03:18;;;;;;;1.20;1.20;;;;;;;5.39;63.92;99982.78;5082798;28;20199;-69
2021/12/21 11:05:46;;;;;;;2.43;1.47;;;;;;;5.59;63.45;99976.00;5087771;28;20203;-70
2021/12/21 11:08:24;;;;;;;1.80;1.73;;;;;;;5.78;63.70;99970.88;5087767;28;20212;-70
2021/12/21 11:10:58;;;;;;;1.40;1.30;;;;;;;5.90;61.03;99980.22;5086959;28;20229;-70
2021/12/21 11:13:25;;;;;;;1.83;1.73;;;;;;;5.86;59.24;99981.06;5087239;28;20200;-70
2021/12/21 11:15:56;;;;;;;1.43;1.43;;;;;;;5.81;60.35;99975.13;5087358;28;20199;-70
2021/12/21 11:18:23;;;;;;;5.43;5.03;;;;;;;5.98;59.97;99978.50;5083687;28;20203;-71
2021/12/21 11:20:52;;;;;;;3.23;2.13;;;;;;;6.00;59.68;99975.94;5084128;28;20230;-69
2021/12/21 11:23:23;;;;;;;1.77;1.70;;;;;;;5.88;59.80;99961.53;5087172;28;20207;-70
2021/12/21 11:25:53;;;;;;;4.83;2.13;;;;;;;5.89;58.73;99978.50;5087055;28;20199;-70
2021/12/21 11:28:22;;;;;;;3.20;2.00;;;;;;;5.88;60.82;99971.72;5087365;28;20272;-70
2021/12/21 11:30:49;;;;;;;1.90;1.80;;;;;;;5.85;59.07;99976.78;5087237;28;20320;-70
2021/12/21 11:33:20;;;;;;;2.90;1.93;;;;;;;5.94;61.29;99961.56;5085871;28;20195;-71
2021/12/21 11:38:32;;;;;;;1.33;1.33;;;;;;;6.25;58.84;99968.25;5086223;28;20211;-70
2021/12/21 11:41:00;;;;;;;2.10;2.00;;;;;;;6.26;61.00;99966.53;5085183;28;20226;-69
2021/12/21 11:43:34;;;;;;;1.97;1.87;;;;;;;6.20;61.27;99966.56;5086774;28;20211;-69
2021/12/21 11:46:05;;;;;;;1.43;1.43;;;;;;;6.14;61.23;99971.69;5085426;28;20199;-69
2021/12/21 11:48:42;;;;;;;1.57;1.47;;;;;;;5.93;59.97;99959.84;5080965;28;20206;-69
2021/12/21 11:51:11;;;;;;;1.90;1.80;;;;;;;5.92;62.75;99970.88;5086312;28;20195;-71
2021/12/21 11:53:38;;;;;;;2.10;2.00;;;;;;;5.76;63.91;99976.81;5080447;28;20203;-71
2021/12/21 11:56:06;;;;;;;2.30;2.10;;;;;;;5.65;63.96;99973.44;5086384;28;20210;-68
2021/12/21 11:58:39;;;;;;;2.53;2.33;;;;;;;5.60;65.74;99977.69;5086444;28;20664;-71
2021/12/21 12:01:13;;;;;;;2.80;2.50;;;;;;;5.54;67.44;99982.78;5082860;28;20223;-70
2021/12/21 12:03:54;;;;;;;4.87;2.90;;;;;;;5.53;66.87;99968.34;5084527;28;20618;-72
2021/12/21 12:06:21;;;;;;;3.40;3.20;;;;;;;5.53;65.92;99974.28;5085053;28;20584;-69
2021/12/21 12:08:52;;;;;;;3.07;2.87;;;;;;;5.60;67.08;99976.00;5085951;28;20593;-72
2021/12/21 12:11:25;;;;;;;2.33;2.13;;;;;;;5.62;66.98;99973.47;5081740;28;20222;-71
2021/12/21 12:14:04;;;;;;;2.27;2.17;;;;;;;5.62;66.38;99979.38;5083836;28;20202;-70
2021/12/21 12:16:40;;;;;;;2.07;1.97;;;;;;;5.51;66.51;99980.22;5078837;28;20853;-70
2021/12/21 12:19:13;;;;;;;2.60;2.40;;;;;;;5.49;67.71;99974.31;5077440;28;20198;-70
2021/12/21 12:21:53;;;;;;;2.40;2.30;;;;;;;5.44;67.66;99978.53;5073501;28;20207;-70
2021/12/21 12:24:21;;;;;;;2.60;2.40;;;;;;;5.40;68.56;99981.91;5084119;28;20702;-71
2021/12/21 12:26:57;;;;;;;2.07;1.97;;;;;;;5.33;67.52;99985.34;5085674;28;20214;-71
2021/12/21 12:29:25;;;;;;;2.50;2.40;;;;;;;5.26;68.66;99984.47;5086411;28;20663;-70
2021/12/21 12:32:00;;;;;;;2.80;2.60;;;;;;;5.26;69.93;99995.50;5085979;28;20200;-71